Time;durP1;ratioP1;P1;durP2;ratioP2;P2;SDS_P1;SDS_P2;PMS_P1;PMS_P2;Temp;Humidity;BMP_temperature;BMP_pressure;BME280_temperature;BME280_humidity;BME280_pressure;Samples;Min_cycle;Max_cycle;Signal;HPM_P1;HPM_P2
2022/02/09 00:05:29;;;;;;;21.17;5.20;;;;;;;-145.69;100.00;74009.97;5068126;28;20201;-75
2022/02/09 00:08:03;;;;;;;13.03;4.37;;;;;;;-145.69;100.00;74005.97;5075543;28;20234;-75
2022/02/09 00:10:33;;;;;;;14.27;4.33;;;;;;;-145.69;100.00;74009.97;5074992;28;20202;-75
2022/02/09 00:13:28;;;;;;;20.90;4.37;;;;;;;-145.69;100.00;74004.00;5075404;28;20256;-76
2022/02/09 00:16:03;;;;;;;17.83;4.80;;;;;;;-145.69;100.00;74011.97;5075217;28;20321;-76
2022/02/09 00:18:37;;;;;;;9.43;3.87;;;;;;;-145.69;100.00;74005.97;5075301;28;20198;-76
2022/02/09 00:21:30;;;;;;;17.23;3.90;;;;;;;-145.69;100.00;74000.00;5075108;28;20608;-76
2022/02/09 00:24:26;;;;;;;17.53;3.87;;;;;;;-145.69;100.00;74015.94;5074967;28;20234;-76
2022/02/09 00:27:26;;;;;;;10.57;3.40;;;;;;;-145.69;100.00;74021.91;5082066;28;20576;-75
2022/02/09 00:33:05;;;;;;;14.50;3.80;;;;;;;-145.69;100.00;74029.88;5095297;28;20209;-75
2022/02/09 00:38:45;;;;;;;19.53;3.30;;;;;;;-145.69;100.00;74015.94;5094999;28;20745;-75
2022/02/09 00:41:25;;;;;;;10.60;2.77;;;;;;;-145.69;100.00;74005.97;5094658;28;20656;-76
2022/02/09 01:03:09;;;;;;;14.30;2.93;;;;;;;-145.69;100.00;73946.25;5094678;28;20286;-76
2022/02/09 01:11:35;;;;;;;16.00;3.03;;;;;;;-145.69;100.00;73944.25;5094431;28;20205;-76
2022/02/09 01:38:49;;;;;;;14.07;2.87;;;;;;;-145.69;100.00;73896.47;5073732;28;20197;-75
2022/02/09 01:57:46;;;;;;;8.53;2.10;;;;;;;-145.69;100.00;73950.22;5057069;28;20248;-75
2022/02/09 02:00:14;;;;;;;10.83;2.20;;;;;;;-145.69;100.00;73936.28;5073324;28;20199;-76
2022/02/09 02:02:40;;;;;;;12.80;2.50;;;;;;;-145.69;100.00;73934.31;5073323;28;20195;-76
2022/02/09 02:05:08;;;;;;;8.80;2.03;;;;;;;-145.69;100.00;73944.25;5072912;28;20198;-76
2022/02/09 02:07:44;;;;;;;8.23;2.00;;;;;;;-145.69;100.00;73948.25;5072708;28;20649;-76
2022/02/09 02:10:13;;;;;;;15.07;1.90;;;;;;;-145.69;100.00;73948.25;5073359;28;20222;-76
2022/02/09 02:12:59;;;;;;;8.10;2.13;;;;;;;-145.69;100.00;73950.22;5073250;28;20601;-75
2022/02/09 02:16:07;;;;;;;6.13;2.50;;;;;;;-145.69;100.00;73946.25;5072995;28;20237;-76
2022/02/09 02:18:35;;;;;;;17.00;2.53;;;;;;;-145.69;100.00;73954.22;5073040;28;20200;-75
2022/02/09 02:21:20;;;;;;;10.50;2.50;;;;;;;-145.69;100.00;73962.19;5073092;28;20206;-75
2022/02/09 02:24:17;;;;;;;6.73;2.10;;;;;;;-145.69;100.00;73970.16;5084578;28;20229;-75
2022/02/09 02:26:58;;;;;;;12.00;2.20;;;;;;;-145.69;100.00;73962.19;5092665;28;20236;-76
2022/02/09 02:30:00;;;;;;;11.10;2.30;;;;;;;-145.69;100.00;73954.22;5093284;28;20229;-76
2022/02/09 02:32:48;;;;;;;12.10;2.40;;;;;;;-145.69;100.00;73952.22;5072786;28;20290;-76
2022/02/09 02:44:01;;;;;;;8.23;2.53;;;;;;;-145.69;100.00;73950.22;5072612;28;20276;-76
2022/02/09 02:46:42;;;;;;;9.67;2.03;;;;;;;-145.69;100.00;73966.16;5072485;28;20279;-75
2022/02/09 02:57:59;;;;;;;13.83;2.53;;;;;;;-145.69;100.00;73982.09;4991018;28;20244;-76
2022/02/09 03:09:08;;;;;;;12.33;2.80;;;;;;;-145.69;100.00;73998.03;5072571;28;20198;-76
2022/02/09 03:12:02;;;;;;;12.27;2.70;;;;;;;-145.69;100.00;73980.09;5072200;28;20198;-75
2022/02/09 03:14:36;;;;;;;8.07;2.90;;;;;;;-145.69;100.00;73962.19;5088188;28;20209;-76
2022/02/09 03:17:08;;;;;;;10.70;2.57;;;;;;;-145.69;100.00;73968.16;5093784;28;20236;-75
2022/02/09 03:19:46;;;;;;;11.47;2.60;;;;;;;-145.69;100.00;73968.16;5096416;28;20576;-76
2022/02/09 03:22:22;;;;;;;13.73;2.93;;;;;;;-145.69;100.00;73970.16;5096658;28;20202;-75
2022/02/09 03:25:20;;;;;;;12.40;2.87;;;;;;;-145.69;100.00;73966.16;5075949;28;20217;-75
2022/02/09 03:31:01;;;;;;;10.40;2.30;;;;;;;-145.69;100.00;73952.22;5067377;28;20211;-75
2022/02/09 03:44:36;;;;;;;12.87;2.60;;;;;;;-145.69;100.00;73954.22;5055949;28;20312;-75
2022/02/09 03:47:20;;;;;;;7.30;2.30;;;;;;;-145.69;100.00;73956.19;5055336;28;20666;-76
2022/02/09 03:55:18;;;;;;;15.50;2.80;;;;;;;-145.69;100.00;73926.34;5055724;28;20290;-75
2022/02/09 03:57:46;;;;;;;8.53;3.00;;;;;;;-145.69;100.00;73930.31;5055613;28;20256;-75
2022/02/09 04:00:14;;;;;;;6.67;2.13;;;;;;;-145.69;100.00;73926.34;5055253;28;20199;-76
2022/02/09 04:02:44;;;;;;;14.67;3.27;;;;;;;-145.69;100.00;73930.31;5055340;28;20208;-76
2022/02/09 04:05:11;;;;;;;16.00;2.43;;;;;;;-145.69;100.00;73932.31;5055607;28;20273;-76
2022/02/09 04:07:37;;;;;;;5.17;2.20;;;;;;;-145.69;100.00;73930.31;5055599;28;20305;-75
2022/02/09 04:10:07;;;;;;;6.07;2.20;;;;;;;-145.69;100.00;73930.31;5055337;28;20204;-75
2022/02/09 04:12:39;;;;;;;7.83;2.20;;;;;;;-145.69;100.00;73926.34;5055389;28;20207;-75
2022/02/09 04:15:19;;;;;;;9.50;2.20;;;;;;;-145.69;100.00;73902.44;5054964;28;20756;-75
2022/02/09 04:18:01;;;;;;;10.60;2.70;;;;;;;-145.69;100.00;73902.44;5055413;28;20210;-75
2022/02/09 04:22:23;;;;;;;8.70;2.30;;;;;;;-145.69;100.00;73908.41;5055424;28;20206;-75
2022/02/09 04:36:57;;;;;;;10.97;2.10;;;;;;;-145.69;100.00;73912.41;5095169;28;20298;-75
2022/02/09 04:39:29;;;;;;;7.57;2.10;;;;;;;-145.69;100.00;73918.38;5095078;28;20231;-75
2022/02/09 04:42:22;;;;;;;9.27;1.77;;;;;;;-145.69;100.00;73906.44;5095140;28;20198;-75
2022/02/09 04:45:18;;;;;;;7.27;1.80;;;;;;;-145.69;100.00;73914.38;5095046;28;20216;-75
2022/02/09 04:47:54;;;;;;;4.73;1.70;;;;;;;-145.69;100.00;73902.44;5094374;28;20210;-75
2022/02/09 04:50:27;;;;;;;8.23;2.33;;;;;;;-145.69;100.00;73902.44;5094753;28;20208;-75
2022/02/09 04:53:19;;;;;;;10.43;1.83;;;;;;;-145.69;100.00;73904.44;5095095;28;20211;-75
2022/02/09 04:55:53;;;;;;;5.00;1.70;;;;;;;-145.69;100.00;73902.44;5094773;28;20218;-74
2022/02/09 04:58:31;;;;;;;8.07;2.47;;;;;;;-145.69;100.00;73898.47;5094760;28;20224;-75
2022/02/09 05:01:03;;;;;;;17.77;1.80;;;;;;;-145.69;100.00;73902.44;5094540;28;20202;-75
2022/02/09 05:28:09;;;;;;;7.97;2.20;;;;;;;-145.69;100.00;73892.50;5094173;28;20189;-75
2022/02/09 05:30:35;;;;;;;10.73;2.10;;;;;;;-145.69;100.00;73892.50;5084513;28;20203;-75
2022/02/09 05:33:02;;;;;;;11.83;1.80;;;;;;;-145.69;100.00;73898.47;5072946;28;20570;-75
2022/02/09 05:35:28;;;;;;;6.90;1.83;;;;;;;-145.69;100.00;73896.47;5073441;28;20562;-75
2022/02/09 05:37:57;;;;;;;11.53;1.73;;;;;;;-145.69;100.00;73898.47;5073537;28;20634;-75
2022/02/09 05:40:24;;;;;;;13.73;1.70;;;;;;;-145.69;100.00;73890.50;5072684;28;20214;-75
2022/02/09 05:42:51;;;;;;;4.93;2.03;;;;;;;-145.69;100.00;73890.50;5072826;28;20202;-75
2022/02/09 05:45:19;;;;;;;8.83;1.80;;;;;;;-145.69;100.00;73900.44;5073680;28;20199;-75
2022/02/09 05:50:35;;;;;;;16.17;2.07;;;;;;;-145.69;100.00;73898.47;5073379;28;20244;-74
2022/02/09 05:53:11;;;;;;;6.20;1.77;;;;;;;-145.69;100.00;73882.53;5073223;28;20290;-74
2022/02/09 05:55:46;;;;;;;10.00;1.87;;;;;;;-145.69;100.00;73880.53;5073185;28;20202;-75
2022/02/09 05:58:22;;;;;;;10.47;2.00;;;;;;;-145.69;100.00;73858.63;5073341;28;20203;-75
2022/02/09 06:00:49;;;;;;;6.33;1.37;;;;;;;-145.69;100.00;73854.66;5072979;28;20206;-75
2022/02/09 06:03:15;;;;;;;10.47;1.90;;;;;;;-145.69;100.00;73870.59;5073041;28;20199;-75
2022/02/09 06:05:44;;;;;;;7.07;1.70;;;;;;;-145.69;100.00;73876.56;5073329;28;20195;-75
2022/02/09 06:08:12;;;;;;;5.27;1.40;;;;;;;-145.69;100.00;73874.56;5072870;28;20289;-75
2022/02/09 06:10:41;;;;;;;4.47;1.50;;;;;;;-145.69;100.00;73886.50;5073207;28;20202;-75
2022/02/09 06:13:16;;;;;;;6.87;1.40;;;;;;;-145.69;100.00;73898.47;5073134;28;20210;-75
2022/02/09 06:16:04;;;;;;;1.60;1.07;;;;;;;-145.69;100.00;73932.31;5072846;28;20233;-75
2022/02/09 06:21:18;;;;;;;7.53;1.17;;;;;;;-145.69;100.00;73928.31;5072745;28;20237;-75
2022/02/09 06:23:47;;;;;;;2.90;1.30;;;;;;;-145.69;100.00;73938.28;5072722;28;20226;-75
2022/02/09 06:26:13;;;;;;;3.93;1.47;;;;;;;-145.69;100.00;73898.47;5072863;28;20562;-75
2022/02/09 06:28:40;;;;;;;9.07;1.80;;;;;;;-145.69;100.00;73908.41;5073122;28;20206;-75
2022/02/09 06:31:06;;;;;;;3.77;1.60;;;;;;;-145.69;100.00;73922.34;5086585;28;20251;-76
2022/02/09 06:33:32;;;;;;;5.77;1.40;;;;;;;-145.69;100.00;73958.19;5093207;28;20198;-75
2022/02/09 06:36:02;;;;;;;11.10;1.80;;;;;;;-145.69;100.00;73950.22;5093033;28;20233;-75
2022/02/09 06:38:29;;;;;;;3.67;1.40;;;;;;;-145.69;100.00;73912.41;5093039;28;20205;-75
2022/02/09 06:40:57;;;;;;;4.67;1.13;;;;;;;-145.69;100.00;73910.41;5092730;28;20208;-75
2022/02/09 06:43:24;;;;;;;9.50;1.60;;;;;;;-145.69;100.00;73918.38;5092915;28;20198;-75
2022/02/09 06:45:50;;;;;;;2.27;1.30;;;;;;;-145.69;100.00;73914.38;5092890;28;20198;-75
2022/02/09 06:48:18;;;;;;;13.33;1.60;;;;;;;-145.69;100.00;73884.53;5092825;28;20684;-75
2022/02/09 06:50:49;;;;;;;8.53;1.43;;;;;;;-145.69;100.00;73890.50;5092968;28;20205;-75
2022/02/09 06:53:25;;;;;;;1.73;1.17;;;;;;;-145.69;100.00;73904.44;5095517;28;20235;-75
2022/02/09 06:55:55;;;;;;;4.57;2.00;;;;;;;-145.69;100.00;73906.44;5097382;28;20263;-75
2022/02/09 06:58:44;;;;;;;3.77;1.30;;;;;;;-145.69;100.00;73910.41;5097104;28;20206;-75
2022/02/09 07:01:11;;;;;;;6.23;1.67;;;;;;;-145.69;100.00;73902.44;5097028;28;20201;-76
2022/02/09 07:03:38;;;;;;;10.70;1.50;;;;;;;-145.69;100.00;73890.50;5096833;28;20201;-75
2022/02/09 07:06:06;;;;;;;3.43;1.50;;;;;;;-145.69;100.00;73886.50;5097178;28;20245;-75
2022/02/09 07:08:32;;;;;;;4.17;1.50;;;;;;;-145.69;100.00;73902.44;5097004;28;20234;-75
2022/02/09 07:10:59;;;;;;;6.13;1.97;;;;;;;-145.69;100.00;73886.50;5096662;28;20251;-75
2022/02/09 07:13:27;;;;;;;5.83;1.80;;;;;;;-145.69;100.00;73934.31;5096647;28;20202;-75
2022/02/09 07:15:55;;;;;;;3.87;1.50;;;;;;;-145.69;100.00;73914.38;5096173;28;20205;-75
2022/02/09 07:18:23;;;;;;;2.67;1.20;;;;;;;-145.69;100.00;73898.47;5096632;28;20198;-75
2022/02/09 07:20:57;;;;;;;6.87;1.30;;;;;;;-145.69;100.00;73872.56;5096199;28;20202;-75
2022/02/09 07:23:29;;;;;;;5.17;1.30;;;;;;;-145.69;100.00;73878.56;5096293;28;20576;-75
2022/02/09 07:26:09;;;;;;;1.73;1.20;;;;;;;-145.69;100.00;73872.56;5096553;28;20661;-76
2022/02/09 07:28:38;;;;;;;4.73;1.70;;;;;;;-145.69;100.00;73878.56;5096180;28;20297;-76
2022/02/09 07:31:07;;;;;;;5.00;1.90;;;;;;;-145.69;100.00;73852.66;5082271;28;20711;-75
2022/02/09 07:33:34;;;;;;;2.30;1.43;;;;;;;-145.69;100.00;73842.72;5076234;28;20202;-75
2022/02/09 07:36:00;;;;;;;11.50;2.77;;;;;;;-145.69;100.00;73854.66;5076061;28;20202;-75
2022/02/09 07:38:27;;;;;;;4.10;1.83;;;;;;;-145.69;100.00;73846.69;5075810;28;20248;-76
2022/02/09 07:40:57;;;;;;;3.17;1.77;;;;;;;-145.69;100.00;73830.75;5075458;28;20207;-76
2022/02/09 07:43:27;;;;;;;3.40;1.50;;;;;;;-145.69;100.00;73806.88;5075911;28;20203;-76
2022/02/09 07:46:16;;;;;;;6.77;1.60;;;;;;;-145.69;100.00;73790.94;5076056;28;20198;-76
2022/02/09 07:48:53;;;;;;;5.03;1.70;;;;;;;-145.69;100.00;73767.06;5075153;28;20697;-76
2022/02/09 07:54:04;;;;;;;2.23;1.57;;;;;;;-145.69;100.00;73763.06;5075822;28;20201;-75
2022/02/09 07:56:33;;;;;;;6.73;1.93;;;;;;;-145.69;100.00;73786.97;5075538;28;20271;-75
2022/02/09 07:59:00;;;;;;;10.40;1.53;;;;;;;-145.69;100.00;73798.91;5075621;28;20661;-76
2022/02/09 08:01:28;;;;;;;4.03;1.30;;;;;;;-145.69;100.00;73786.97;5075396;28;20206;-75
2022/02/09 08:03:55;;;;;;;7.87;1.30;;;;;;;-145.69;100.00;73767.06;5074414;28;20202;-75
2022/02/09 08:06:24;;;;;;;7.00;1.30;;;;;;;-145.69;100.00;73737.19;5075663;28;20207;-76
2022/02/09 08:08:51;;;;;;;6.40;0.90;;;;;;;-145.69;100.00;73737.19;5075218;28;20222;-75
2022/02/09 08:11:22;;;;;;;2.83;1.10;;;;;;;-145.69;100.00;73713.28;5075450;28;20221;-75
2022/02/09 08:27:38;;;;;;;2.93;0.80;;;;;;;-145.69;100.00;73661.53;5075220;28;20198;-75
2022/02/09 08:30:20;;;;;;;2.97;1.07;;;;;;;-145.69;100.00;73665.50;5080004;28;20607;-76
2022/02/09 08:32:55;;;;;;;3.53;1.20;;;;;;;-145.69;100.00;73653.56;5095552;28;20230;-76
2022/02/09 08:35:22;;;;;;;7.00;1.03;;;;;;;-145.69;100.00;73651.56;5095487;28;20259;-75
2022/02/09 08:37:50;;;;;;;1.43;0.70;;;;;;;-145.69;100.00;73647.59;5095358;28;20222;-75
2022/02/09 08:40:21;;;;;;;0.93;0.80;;;;;;;-145.69;100.00;73639.63;5095491;28;20198;-76
2022/02/09 08:42:47;;;;;;;0.70;0.70;;;;;;;-145.69;100.00;73583.88;5095253;28;20201;-75
2022/02/09 08:45:13;;;;;;;0.90;0.70;;;;;;;-145.69;100.00;73573.94;5095459;28;20255;-76
2022/02/09 08:47:40;;;;;;;2.67;1.00;;;;;;;-145.69;100.00;73565.97;5095022;28;20198;-75
2022/02/09 08:50:09;;;;;;;1.60;1.20;;;;;;;-145.69;100.00;73554.00;5094975;28;20210;-76
2022/02/09 08:52:35;;;;;;;1.73;0.87;;;;;;;-145.69;100.00;73526.16;5095109;28;20200;-75
2022/02/09 08:55:02;;;;;;;2.70;0.90;;;;;;;-145.69;100.00;73490.31;5095072;28;20705;-76
2022/02/09 08:57:29;;;;;;;9.43;1.80;;;;;;;-145.69;100.00;73490.31;5094795;28;20627;-76
2022/02/09 08:59:58;;;;;;;11.67;4.00;;;;;;;-145.69;100.00;73474.38;5094309;28;20190;-75
2022/02/09 09:02:32;;;;;;;10.40;2.37;;;;;;;-145.69;100.00;73464.44;5094038;28;20209;-75
2022/02/09 09:05:09;;;;;;;3.80;1.10;;;;;;;-145.69;100.00;73446.50;5094999;28;20249;-75
2022/02/09 09:07:38;;;;;;;8.53;3.10;;;;;;;-145.69;100.00;73432.56;5094667;28;20202;-76
2022/02/09 09:10:13;;;;;;;13.53;4.30;;;;;;;-145.69;100.00;73410.66;5094500;28;20319;-75
2022/02/09 09:16:39;;;;;;;15.93;5.30;;;;;;;-145.69;100.00;73364.88;5093955;28;20670;-75
2022/02/09 09:18:55;;;;;;;10.30;4.17;;;;;;;-145.69;100.00;73350.94;5094023;28;20225;-74
2022/02/09 10:02:58;;;;;;;7.63;3.23;;;;;;;-145.69;100.00;73114.03;5072970;28;20558;-76
2022/02/09 10:14:07;;;;;;;5.67;2.60;;;;;;;-145.69;100.00;73104.09;5073520;28;20202;-76
2022/02/09 10:30:52;;;;;;;3.10;1.83;;;;;;;-145.69;100.00;73068.25;5073397;28;20221;-76
2022/02/09 10:33:55;;;;;;;2.93;1.67;;;;;;;-145.69;100.00;72966.72;5061632;28;20220;-76
2022/02/09 10:36:22;;;;;;;2.23;1.50;;;;;;;-145.69;100.00;72954.78;5092764;28;20595;-76
2022/02/09 10:38:50;;;;;;;2.60;1.80;;;;;;;-145.69;100.00;72934.88;5092878;28;20226;-76
2022/02/09 10:41:21;;;;;;;2.03;1.40;;;;;;;-145.69;100.00;72934.88;5092874;28;20678;-76
2022/02/09 10:43:47;;;;;;;2.67;1.17;;;;;;;-145.69;100.00;72913.00;5093175;28;20300;-76
2022/02/09 10:46:17;;;;;;;3.60;1.93;;;;;;;-145.69;100.00;72891.09;5092533;28;20304;-76
2022/02/09 10:48:50;;;;;;;3.97;1.50;;;;;;;-145.69;100.00;72895.06;5092749;28;20755;-75
2022/02/09 10:51:21;;;;;;;2.40;1.57;;;;;;;-145.69;100.00;72883.13;5092878;28;20225;-75
2022/02/09 10:54:05;;;;;;;2.50;1.10;;;;;;;-145.69;100.00;72867.19;5092984;28;20198;-75
2022/02/09 10:56:33;;;;;;;2.30;1.00;;;;;;;-145.69;100.00;72867.19;5092103;28;20549;-76
2022/02/09 10:59:02;;;;;;;3.13;1.10;;;;;;;-145.69;100.00;72843.31;5092791;28;20237;-76
2022/02/09 11:01:30;;;;;;;0.90;0.70;;;;;;;-145.69;100.00;72827.38;5093190;28;20198;-76
2022/02/09 11:03:57;;;;;;;1.73;0.83;;;;;;;-145.69;100.00;72803.50;5092710;28;20661;-75
2022/02/09 11:06:27;;;;;;;1.17;0.90;;;;;;;-145.69;100.00;72789.56;5092743;28;20205;-76
2022/02/09 11:08:54;;;;;;;1.80;1.00;;;;;;;-145.69;100.00;72775.63;5092566;28;20209;-76
2022/02/09 11:11:21;;;;;;;1.43;0.90;;;;;;;-145.69;100.00;72749.75;5092857;28;20202;-76
2022/02/09 11:13:48;;;;;;;0.80;0.60;;;;;;;-145.69;100.00;72739.81;5092679;28;20555;-76
2022/02/09 11:16:16;;;;;;;0.80;0.80;;;;;;;-145.69;100.00;72725.88;5092936;28;20248;-76
2022/02/09 11:18:48;;;;;;;0.80;0.67;;;;;;;-145.69;100.00;72700.00;5092036;28;20226;-76
2022/02/09 11:21:15;;;;;;;0.57;0.40;;;;;;;-145.69;100.00;72690.03;5092752;28;20206;-76
2022/02/09 11:23:44;;;;;;;1.80;0.70;;;;;;;-145.69;100.00;72692.03;5092379;28;20719;-77
2022/02/09 11:26:35;;;;;;;1.10;0.70;;;;;;;-145.69;100.00;72680.09;5092113;28;20190;-77
2022/02/09 11:29:34;;;;;;;0.50;0.50;;;;;;;-145.69;100.00;72660.19;5092655;28;20293;-77
2022/02/09 11:32:24;;;;;;;1.50;0.73;;;;;;;-145.69;89.65;72648.25;5092234;28;20653;-77
2022/02/09 11:38:19;;;;;;;3.23;0.90;;;;;;;-145.69;94.00;72616.41;5080140;28;20218;-77
2022/02/09 11:40:52;;;;;;;2.13;1.23;;;;;;;-145.69;92.23;72600.47;5096324;28;20198;-77
2022/02/09 11:46:58;;;;;;;1.00;0.80;;;;;;;-145.69;97.83;72574.59;5075150;28;20202;-77
2022/02/09 11:52:40;;;;;;;2.43;0.90;;;;;;;-145.69;99.56;72564.66;5096348;28;20263;-79
2022/02/09 12:10:15;;;;;;;3.67;0.90;;;;;;;-145.69;80.82;72485.03;5095508;28;20225;-78
2022/02/09 12:12:44;;;;;;;1.42;0.75;;;;;;;-145.69;92.50;72481.03;5095683;28;20439;-77
2022/02/09 12:15:29;;;;;;;3.23;1.10;;;;;;;-145.69;83.80;72475.06;5095689;28;20243;-77
2022/02/09 12:18:13;;;;;;;2.50;1.00;;;;;;;-145.69;80.21;72465.13;5095604;28;20222;-76
2022/02/09 12:20:47;;;;;;;3.80;1.17;;;;;;;-145.69;81.23;72445.22;5095807;28;20213;-78
2022/02/09 12:23:27;;;;;;;2.87;1.50;;;;;;;-145.69;76.07;72421.34;5095140;28;20226;-78
2022/02/09 12:25:54;;;;;;;1.80;0.90;;;;;;;-145.69;80.49;72417.34;5095610;28;20213;-78
2022/02/09 12:28:22;;;;;;;2.37;1.20;;;;;;;-145.69;82.73;72417.34;5095430;28;20206;-77
2022/02/09 12:31:02;;;;;;;4.83;1.63;;;;;;;-145.69;75.58;72409.38;5095144;28;20198;-79
2022/02/09 12:33:28;;;;;;;1.43;1.03;;;;;;;-145.69;78.19;72403.41;5075338;28;20206;-79
2022/02/09 12:36:08;;;;;;;3.80;0.80;;;;;;;-145.69;74.76;72387.50;5075049;28;20199;-77
2022/02/09 12:38:35;;;;;;;0.83;0.70;;;;;;;-145.69;79.17;72389.50;5075289;28;20230;-77
2022/02/09 12:41:10;;;;;;;1.93;1.00;;;;;;;-145.69;76.10;72367.59;5074925;28;20720;-77
2022/02/09 12:43:50;;;;;;;2.03;0.70;;;;;;;-145.69;75.03;72359.63;5075082;28;20232;-77
2022/02/09 12:46:20;;;;;;;2.10;0.87;;;;;;;-145.69;69.57;72353.66;5074951;28;20202;-77
2022/02/09 12:48:47;;;;;;;1.77;0.93;;;;;;;-145.69;75.13;72355.66;5074659;28;20210;-77
2022/02/09 12:51:25;;;;;;;1.10;0.60;;;;;;;-145.69;68.84;72357.66;5074147;28;20206;-77
2022/02/09 12:53:51;;;;;;;2.60;0.90;;;;;;;-145.69;71.79;72353.66;5074447;28;20202;-77
2022/02/09 12:56:20;;;;;;;6.33;0.90;;;;;;;-145.69;71.67;72345.69;5074826;28;20210;-77
2022/02/09 12:58:58;;;;;;;6.70;1.23;;;;;;;-145.69;70.18;72329.78;5074378;28;20230;-77
2022/02/09 13:01:26;;;;;;;0.97;0.57;;;;;;;-145.69;72.17;72325.81;5079539;28;20198;-77
2022/02/09 13:03:52;;;;;;;1.75;0.80;;;;;;;-145.69;72.01;72307.88;5094277;28;20561;-78
2022/02/09 13:06:19;;;;;;;0.90;0.70;;;;;;;-145.69;67.19;72293.94;5094679;28;20557;-77
2022/02/09 13:08:52;;;;;;;1.65;0.60;;;;;;;-145.69;66.72;72286.00;5094549;28;20554;-78
2022/02/09 13:11:22;;;;;;;2.83;0.60;;;;;;;-145.69;68.29;72262.09;5093506;28;20607;-77
2022/02/09 13:13:53;;;;;;;2.65;0.60;;;;;;;-145.69;70.43;72266.09;5094477;28;20198;-77
2022/02/09 13:16:42;;;;;;;1.05;0.73;;;;;;;-145.69;68.81;72270.06;5093969;28;20190;-77
2022/02/09 13:19:26;;;;;;;2.63;0.70;;;;;;;-145.69;71.26;72250.16;5078514;28;20222;-78
2022/02/09 13:53:26;;;;;;;1.05;0.68;;;;;;;-145.69;48.30;72120.81;5093654;28;20196;-77
2022/02/09 14:04:48;;;;;;;1.10;0.80;;;;;;;-145.69;50.67;72082.97;5093566;28;20239;-77
2022/02/09 14:12:50;;;;;;;3.95;1.50;;;;;;;-145.69;46.46;72043.19;5093540;28;20205;-78
2022/02/09 14:15:29;;;;;;;1.52;0.95;;;;;;;-145.69;46.34;72025.28;5093343;28;20194;-78
2022/02/09 14:18:16;;;;;;;2.20;1.00;;;;;;;-145.69;47.18;71975.50;5093354;28;20221;-78
2022/02/09 14:24:01;;;;;;;1.52;0.70;;;;;;;-145.69;40.73;71639.19;5093129;28;20262;-78
2022/02/09 14:35:03;;;;;;;2.05;0.82;;;;;;;-145.69;35.89;71233.25;5093267;28;20205;-76
2022/02/09 14:51:35;;;;;;;0.90;0.70;;;;;;;-145.69;33.54;71121.84;5093162;28;20281;-78
2022/02/09 14:54:11;;;;;;;3.42;0.90;;;;;;;-145.69;32.60;71115.88;5093092;28;20193;-78
2022/02/09 14:56:52;;;;;;;1.95;0.88;;;;;;;-145.69;32.02;71141.72;5093086;28;20204;-78
2022/02/09 14:59:32;;;;;;;2.63;0.95;;;;;;;-145.69;31.98;71233.25;5092994;28;20225;-78
2022/02/09 15:02:03;;;;;;;8.25;3.70;;;;;;;-145.69;33.22;71181.53;5092980;28;20208;-78
2022/02/09 15:04:38;;;;;;;1.83;0.90;;;;;;;-145.69;33.09;71056.16;5092802;28;20202;-78
2022/02/09 15:07:23;;;;;;;1.08;0.60;;;;;;;-145.69;34.43;71064.13;5092675;28;20668;-78
2022/02/09 15:09:54;;;;;;;8.27;4.88;;;;;;;-145.69;31.88;70855.22;5092859;28;20206;-76
2022/02/09 15:12:27;;;;;;;6.32;1.63;;;;;;;-145.69;31.03;70801.50;5092917;28;20202;-78
2022/02/09 15:15:12;;;;;;;2.83;0.98;;;;;;;-145.69;31.17;70885.06;5096349;28;20330;-76
2022/02/09 15:18:13;;;;;;;3.65;1.10;;;;;;;-145.69;34.46;71050.22;5096499;28;20209;-78
2022/02/09 15:20:45;;;;;;;1.55;0.70;;;;;;;-145.69;32.25;71052.19;5096617;28;20216;-78
2022/02/09 15:23:12;;;;;;;50.58;26.00;;;;;;;-145.69;30.75;70845.28;5096722;28;20229;-78
2022/02/09 15:25:39;;;;;;;53.65;28.33;;;;;;;-145.69;32.14;70954.69;5096698;28;20206;-78
2022/02/09 15:28:07;;;;;;;9.60;3.05;;;;;;;-145.69;34.05;71070.09;5096696;28;20206;-78
2022/02/09 15:30:43;;;;;;;4.05;1.00;;;;;;;-145.69;34.17;71036.28;5096675;28;20244;-78
2022/02/09 15:33:09;;;;;;;5.80;0.90;;;;;;;-145.69;33.85;71066.13;5096497;28;20201;-78
2022/02/09 15:35:39;;;;;;;2.95;2.03;;;;;;;-145.69;32.73;70924.84;5096419;28;20691;-78
2022/02/09 15:38:10;;;;;;;9.25;5.68;;;;;;;-145.69;31.32;70865.16;5096300;28;20240;-78
2022/02/09 15:40:47;;;;;;;3.28;1.80;;;;;;;-145.69;31.37;70819.41;5096278;28;20202;-78
2022/02/09 15:43:28;;;;;;;1.75;1.08;;;;;;;-145.69;32.87;71060.16;5096471;28;20222;-78
2022/02/09 15:57:27;;;;;;;10.02;1.65;;;;;;;-145.69;35.44;71167.59;5055028;28;20205;-78
2022/02/09 16:08:40;;;;;;;3.33;1.38;;;;;;;-145.69;34.26;71135.75;5055000;28;20206;-77
2022/02/09 16:11:22;;;;;;;4.15;1.02;;;;;;;-145.69;35.34;71304.91;5089699;28;20194;-77
2022/02/09 16:17:00;;;;;;;9.52;1.52;;;;;;;-145.69;50.32;72086.97;5095839;28;20209;-77
2022/02/09 16:19:57;;;;;;;7.25;1.65;;;;;;;-145.69;61.23;72331.78;5095874;28;20553;-77
2022/02/09 16:22:27;;;;;;;17.63;7.30;;;;;;;-145.69;63.56;72419.34;5096028;28;20193;-77
2022/02/09 16:33:24;;;;;;;5.37;1.37;;;;;;;-145.69;81.82;72757.72;5095505;28;20237;-76
2022/02/09 16:38:41;;;;;;;1.93;1.33;;;;;;;-145.69;82.48;72823.41;5095423;28;20222;-76
2022/02/09 16:46:38;;;;;;;7.87;1.90;;;;;;;-145.69;86.15;72907.00;5075095;28;20344;-76
2022/02/09 16:49:10;;;;;;;3.57;1.50;;;;;;;-145.69;88.00;72926.91;5075023;28;20616;-76
2022/02/09 16:51:45;;;;;;;2.30;1.20;;;;;;;-145.69;90.09;72956.78;5075157;28;20209;-77
2022/02/09 16:54:26;;;;;;;4.00;1.60;;;;;;;-145.69;90.54;72982.66;5075145;28;20602;-77
2022/02/09 16:57:02;;;;;;;4.67;1.83;;;;;;;-145.69;92.37;73014.50;5074833;28;20289;-76
2022/02/09 17:18:56;;;;;;;6.70;3.00;;;;;;;-145.69;100.00;73149.88;5094634;28;20715;-76
2022/02/09 17:21:24;;;;;;;4.10;1.90;;;;;;;-145.69;100.00;73169.78;5094685;28;20206;-76
2022/02/09 17:23:54;;;;;;;5.10;1.53;;;;;;;-145.69;100.00;73189.69;5094450;28;20234;-76
2022/02/09 17:26:21;;;;;;;3.63;1.70;;;;;;;-145.69;100.00;73187.69;5094428;28;20209;-77
2022/02/09 17:28:56;;;;;;;6.33;1.90;;;;;;;-145.69;100.00;73191.69;5093910;28;20198;-76
2022/02/09 17:31:29;;;;;;;4.63;1.90;;;;;;;-145.69;100.00;73201.63;5094483;28;20201;-77
2022/02/09 17:37:00;;;;;;;7.10;2.23;;;;;;;-145.69;100.00;73223.53;5084352;28;20263;-78
2022/02/09 17:55:57;;;;;;;3.57;2.40;;;;;;;-145.69;100.00;73319.09;5086010;28;20213;-77
2022/02/09 17:58:28;;;;;;;9.30;2.80;;;;;;;-145.69;100.00;73313.13;5093869;28;20202;-77
2022/02/09 18:00:55;;;;;;;7.40;2.37;;;;;;;-145.69;100.00;73315.13;5093539;28;20205;-77
2022/02/09 18:03:22;;;;;;;3.83;1.93;;;;;;;-145.69;100.00;73307.16;5095200;28;20209;-77
2022/02/09 18:05:51;;;;;;;4.97;2.13;;;;;;;-145.69;100.00;73317.09;5093562;28;20202;-76
2022/02/09 18:08:24;;;;;;;8.47;2.67;;;;;;;-145.69;100.00;73309.13;5093282;28;20205;-77
2022/02/09 18:11:01;;;;;;;6.60;2.77;;;;;;;-145.69;100.00;73321.09;5093457;28;20705;-77
2022/02/09 18:30:00;;;;;;;8.90;2.70;;;;;;;-145.69;100.00;73356.91;5093455;28;20229;-77
2022/02/09 18:32:52;;;;;;;5.10;3.10;;;;;;;-145.69;100.00;73364.88;5093069;28;20206;-77
2022/02/09 18:43:45;;;;;;;3.80;2.77;;;;;;;-145.69;100.00;73386.78;5093121;28;20202;-77
2022/02/09 18:46:19;;;;;;;4.43;2.70;;;;;;;-145.69;100.00;73392.75;5093230;28;20208;-76
2022/02/09 18:49:09;;;;;;;5.57;2.90;;;;;;;-145.69;100.00;73386.78;5092142;28;20206;-76
2022/02/09 18:57:32;;;;;;;12.17;3.03;;;;;;;-145.69;100.00;73428.59;5091281;28;20197;-77
2022/02/09 19:00:08;;;;;;;12.00;3.10;;;;;;;-145.69;100.00;73436.56;5092438;28;20229;-77
2022/02/09 19:02:42;;;;;;;7.33;2.97;;;;;;;-145.69;100.00;73436.56;5092631;28;20206;-78
2022/02/09 19:05:23;;;;;;;11.17;3.13;;;;;;;-145.69;100.00;73416.66;5084939;28;20676;-77
2022/02/09 19:19:06;;;;;;;7.55;3.20;;;;;;;-145.69;100.00;73452.47;5092413;28;20583;-77
2022/02/09 19:27:24;;;;;;;5.40;2.90;;;;;;;-145.69;100.00;73476.38;5092378;28;20193;-78
2022/02/09 19:30:00;;;;;;;10.00;3.17;;;;;;;-145.69;100.00;73478.34;5091812;28;20197;-78
2022/02/09 19:33:10;;;;;;;5.73;3.00;;;;;;;-145.69;100.00;73482.34;5092110;28;20284;-77